Time;durP1;ratioP1;P1;durP2;ratioP2;P2;SDS_P1;SDS_P2;PMS_P1;PMS_P2;Temp;Humidity;BMP_temperature;BMP_pressure;BME280_temperature;BME280_humidity;BME280_pressure;Samples;Min_cycle;Max_cycle;Signal;HPM_P1;HPM_P2
2023/06/11 00:01:53;;;;;;;6.10;4.80;;;;;;;18.73;34.88;95562.38;4952156;28;20158;-62
2023/06/11 00:04:24;;;;;;;9.25;4.72;;;;;;;18.59;35.27;95561.75;4952430;28;20059;-63
2023/06/11 00:06:50;;;;;;;9.43;4.93;;;;;;;18.52;35.56;95559.16;4952109;28;20050;-63
2023/06/11 00:09:15;;;;;;;7.57;4.40;;;;;;;18.62;34.70;95566.69;4950225;28;20517;-63
2023/06/11 00:11:41;;;;;;;7.00;4.80;;;;;;;18.55;35.74;95565.94;4953013;28;20045;-63
2023/06/11 00:14:09;;;;;;;7.15;4.97;;;;;;;18.56;35.28;95568.41;4953349;28;20030;-62
2023/06/11 00:16:36;;;;;;;5.95;4.63;;;;;;;18.43;36.01;95572.13;4949282;28;20133;-63
2023/06/11 00:19:03;;;;;;;7.00;4.45;;;;;;;18.49;35.81;95575.78;4949208;28;20423;-63
2023/06/11 00:21:29;;;;;;;7.00;4.30;;;;;;;18.44;35.96;95568.41;4949706;28;20442;-63
2023/06/11 00:23:55;;;;;;;8.02;4.47;;;;;;;18.48;35.58;95566.03;4951718;28;20042;-63
2023/06/11 00:26:22;;;;;;;10.93;5.15;;;;;;;18.38;35.35;95571.16;4949051;28;20039;-63
2023/06/11 00:28:47;;;;;;;10.82;4.80;;;;;;;18.31;35.88;95579.34;4951479;28;20101;-63
2023/06/11 00:31:13;;;;;;;9.52;5.50;;;;;;;18.26;35.21;95576.53;4949327;28;20505;-63
2023/06/11 00:33:38;;;;;;;5.93;4.35;;;;;;;18.26;35.78;95574.63;4951812;28;20405;-61
2023/06/11 00:36:04;;;;;;;6.22;4.57;;;;;;;18.18;35.73;95578.47;4949755;28;20039;-61
2023/06/11 00:38:30;;;;;;;7.38;4.50;;;;;;;18.12;35.83;95579.38;4953426;28;20626;-61
2023/06/11 00:40:55;;;;;;;6.35;4.70;;;;;;;18.08;36.18;95585.47;4949114;28;20030;-60
2023/06/11 00:43:23;;;;;;;6.85;4.28;;;;;;;18.02;35.90;95582.63;4951017;28;20698;-60
2023/06/11 00:45:51;;;;;;;7.68;4.55;;;;;;;17.97;36.53;95578.97;4948824;28;20415;-60
2023/06/11 00:48:20;;;;;;;8.68;4.80;;;;;;;17.90;36.61;95579.03;4951679;28;20047;-60
2023/06/11 00:50:49;;;;;;;6.75;4.90;;;;;;;17.77;36.89;95578.13;4949318;28;20569;-60
2023/06/11 00:53:18;;;;;;;7.38;4.40;;;;;;;17.77;35.94;95582.69;4948930;28;20125;-60
2023/06/11 00:55:45;;;;;;;6.07;4.53;;;;;;;17.72;36.25;95575.31;4930115;28;20348;-60
2023/06/11 00:58:13;;;;;;;5.50;4.38;;;;;;;17.55;36.50;95577.78;4950289;28;20035;-60
2023/06/11 01:00:52;;;;;;;8.70;4.55;;;;;;;17.58;36.76;95577.31;4927896;28;20032;-60
2023/06/11 01:03:26;;;;;;;7.90;4.93;;;;;;;17.39;37.23;95582.69;4949850;28;20473;-60
2023/06/11 01:06:17;;;;;;;7.10;5.00;;;;;;;17.22;37.04;95577.06;4931447;28;20038;-60
2023/06/11 01:08:42;;;;;;;5.15;4.28;;;;;;;17.38;37.56;95572.16;4948684;28;20049;-60
2023/06/11 01:11:08;;;;;;;5.57;4.78;;;;;;;17.38;37.64;95580.22;4933269;28;20039;-60
2023/06/11 01:13:37;;;;;;;8.13;5.03;;;;;;;17.31;37.42;95579.47;4950630;28;20114;-60
2023/06/11 01:16:12;;;;;;;6.95;4.68;;;;;;;17.24;37.74;95580.34;4948873;28;20178;-60
2023/06/11 01:18:41;;;;;;;9.45;4.80;;;;;;;17.25;37.29;95576.63;4944680;28;20047;-61
2023/06/11 01:21:17;;;;;;;6.30;4.57;;;;;;;17.28;37.16;95581.53;4927566;28;20493;-60
2023/06/11 01:24:00;;;;;;;8.20;4.78;;;;;;;17.23;37.10;95580.59;4947655;28;20037;-60
2023/06/11 01:26:43;;;;;;;5.13;4.40;;;;;;;17.24;37.32;95574.94;4943518;28;20027;-61
2023/06/11 01:29:09;;;;;;;7.85;5.00;;;;;;;17.20;38.36;95587.19;4926390;28;20038;-60
2023/06/11 01:31:37;;;;;;;6.05;4.35;;;;;;;17.21;37.73;95582.66;4948680;28;20055;-60
2023/06/11 01:34:03;;;;;;;6.70;4.57;;;;;;;17.17;38.07;95581.47;4931348;28;20311;-60
2023/06/11 01:36:29;;;;;;;5.68;4.55;;;;;;;17.21;38.16;95594.25;4929130;28;20113;-60
2023/06/11 01:38:58;;;;;;;5.90;4.65;;;;;;;17.20;38.05;95589.88;4950703;28;20035;-61
2023/06/11 01:41:25;;;;;;;8.98;4.50;;;;;;;17.20;38.48;95587.19;4946494;28;20125;-60
2023/06/11 01:43:50;;;;;;;5.55;4.57;;;;;;;17.11;37.92;95588.50;4933418;28;20422;-60
2023/06/11 01:46:15;;;;;;;7.28;4.88;;;;;;;17.09;38.18;95595.97;4956140;28;20034;-61
2023/06/11 01:48:41;;;;;;;6.30;4.90;;;;;;;17.09;38.56;95590.59;4955264;28;20035;-60
2023/06/11 01:51:06;;;;;;;6.65;4.65;;;;;;;17.09;38.32;95587.88;4959173;28;20047;-60
2023/06/11 01:53:32;;;;;;;6.82;4.85;;;;;;;17.19;38.45;95588.25;4956625;28;20339;-61
2023/06/11 01:55:58;;;;;;;6.80;4.50;;;;;;;17.13;38.57;95583.75;4944448;28;20035;-60
2023/06/11 01:58:23;;;;;;;6.22;4.70;;;;;;;17.20;38.24;95592.59;4945549;28;20031;-60
2023/06/11 02:00:49;;;;;;;7.72;4.60;;;;;;;17.17;38.94;95581.47;4948541;28;20275;-60
2023/06/11 02:03:15;;;;;;;6.22;4.78;;;;;;;17.12;39.23;95590.19;4945269;28;20023;-63
2023/06/11 02:05:42;;;;;;;7.28;4.68;;;;;;;17.17;38.61;95584.16;4947487;28;20595;-62
2023/06/11 02:08:08;;;;;;;7.45;4.88;;;;;;;17.03;39.04;95585.06;4946294;28;20043;-62
2023/06/11 02:10:33;;;;;;;6.35;4.45;;;;;;;17.10;39.21;95584.97;4947417;28;20034;-62
2023/06/11 02:12:59;;;;;;;9.18;4.93;;;;;;;17.12;39.06;95585.63;4946603;28;20034;-62
2023/06/11 02:15:24;;;;;;;7.70;4.97;;;;;;;17.14;38.89;95580.84;4945976;28;20043;-62
2023/06/11 02:17:50;;;;;;;5.47;4.55;;;;;;;17.14;38.76;95585.41;4946995;28;20035;-63
2023/06/11 02:20:15;;;;;;;6.25;4.47;;;;;;;17.08;39.53;95583.56;4946797;28;20057;-62
2023/06/11 02:22:41;;;;;;;5.32;4.50;;;;;;;17.09;38.67;95582.50;4947751;28;20027;-62
2023/06/11 02:25:07;;;;;;;9.85;4.68;;;;;;;17.15;39.31;95587.88;4950187;28;20526;-63
2023/06/11 02:27:32;;;;;;;6.30;4.63;;;;;;;17.11;39.06;95589.38;4949174;28;20038;-62
2023/06/11 02:29:57;;;;;;;6.38;5.10;;;;;;;17.15;39.34;95584.38;4945101;28;20035;-62
2023/06/11 02:32:23;;;;;;;6.05;4.72;;;;;;;17.11;39.26;95588.50;4948816;28;20039;-62
2023/06/11 02:34:48;;;;;;;6.45;4.68;;;;;;;17.01;39.48;95586.31;4946444;28;20050;-62
2023/06/11 02:37:14;;;;;;;6.47;4.82;;;;;;;16.92;38.75;95593.84;4950607;28;20292;-62
2023/06/11 02:39:39;;;;;;;6.55;4.80;;;;;;;16.94;39.39;95594.44;4954446;28;20047;-62
2023/06/11 02:42:05;;;;;;;7.13;4.95;;;;;;;16.90;38.92;95585.97;4951068;28;20093;-62
2023/06/11 02:44:31;;;;;;;9.45;4.82;;;;;;;16.84;38.38;95600.31;4950416;28;20047;-62
2023/06/11 02:46:56;;;;;;;5.90;4.20;;;;;;;16.84;38.44;95594.94;4952036;28;20429;-62
2023/06/11 02:49:22;;;;;;;5.97;4.50;;;;;;;16.80;38.27;95593.72;4949411;28;20035;-62
2023/06/11 02:51:47;;;;;;;10.27;4.57;;;;;;;16.73;38.03;95601.03;4952341;28;20085;-62
2023/06/11 02:54:12;;;;;;;6.22;4.90;;;;;;;16.66;38.11;95601.06;4946943;28;20034;-62
2023/06/11 02:56:38;;;;;;;6.18;4.70;;;;;;;16.58;38.85;95595.94;4948158;28;20039;-62
2023/06/11 02:59:03;;;;;;;5.60;4.57;;;;;;;16.61;38.87;95599.03;4948491;28;20307;-62
2023/06/11 03:01:29;;;;;;;5.78;4.32;;;;;;;16.58;38.44;95593.25;4957950;28;20057;-62
2023/06/11 03:03:54;;;;;;;8.32;4.40;;;;;;;16.54;38.98;95592.03;4951527;28;20563;-63
2023/06/11 03:06:20;;;;;;;6.35;4.60;;;;;;;16.51;39.11;95599.50;4947319;28;20039;-63
2023/06/11 03:08:45;;;;;;;5.72;4.60;;;;;;;16.49;39.20;95595.41;4947744;28;20388;-62
2023/06/11 03:11:11;;;;;;;5.82;4.80;;;;;;;16.47;39.07;95600.16;4949841;28;20043;-62
2023/06/11 03:13:36;;;;;;;8.70;4.75;;;;;;;16.42;39.60;95597.28;4948475;28;20046;-63
2023/06/11 03:16:01;;;;;;;7.30;4.72;;;;;;;16.35;38.80;95602.72;4949962;28;20113;-62
2023/06/11 03:18:27;;;;;;;6.57;5.10;;;;;;;16.33;38.69;95597.53;4950596;28;20376;-63
2023/06/11 03:20:52;;;;;;;5.63;4.43;;;;;;;16.28;39.20;95601.88;4952295;28;20023;-63
2023/06/11 03:23:18;;;;;;;7.88;4.65;;;;;;;16.23;39.35;95606.03;4950199;28;20110;-62
2023/06/11 03:25:43;;;;;;;6.93;4.53;;;;;;;16.18;39.69;95599.66;4949348;28;20050;-62
2023/06/11 03:28:09;;;;;;;7.53;4.80;;;;;;;16.12;39.56;95602.16;4950951;28;20155;-62
2023/06/11 03:30:34;;;;;;;7.88;4.65;;;;;;;16.12;39.79;95598.66;4949926;28;20122;-62
2023/06/11 03:33:00;;;;;;;7.72;4.88;;;;;;;16.10;39.43;95593.50;4934627;28;20027;-63
2023/06/11 03:35:25;;;;;;;6.35;4.75;;;;;;;16.07;39.45;95601.16;4957875;28;20044;-63
2023/06/11 03:37:51;;;;;;;6.10;4.82;;;;;;;16.06;39.76;95599.50;4961571;28;20521;-62
2023/06/11 03:40:16;;;;;;;10.25;4.75;;;;;;;16.02;39.23;95598.28;4951888;28;20038;-62
2023/06/11 03:42:41;;;;;;;6.13;5.07;;;;;;;15.97;39.26;95596.22;4950971;28;20035;-62
2023/06/11 03:45:07;;;;;;;6.70;4.60;;;;;;;15.86;39.39;95589.69;4955302;28;20027;-63
2023/06/11 03:47:32;;;;;;;7.30;4.88;;;;;;;15.86;39.85;95595.88;4950812;28;20425;-62
2023/06/11 03:49:58;;;;;;;6.15;4.80;;;;;;;15.86;39.74;95589.69;4954934;28;20042;-62
2023/06/11 03:52:23;;;;;;;8.45;4.80;;;;;;;15.84;39.85;95589.88;4951404;28;20043;-63
2023/06/11 03:54:49;;;;;;;6.38;5.03;;;;;;;15.84;40.10;95592.56;4949992;28;20045;-62
2023/06/11 03:57:14;;;;;;;6.80;4.72;;;;;;;15.87;39.87;95594.84;4946936;28;20019;-63
2023/06/11 03:59:39;;;;;;;8.93;5.00;;;;;;;15.87;40.16;95596.69;4947206;28;20043;-62
2023/06/11 04:02:05;;;;;;;6.65;5.00;;;;;;;15.90;40.17;95595.47;4949234;28;20341;-63
2023/06/11 04:04:32;;;;;;;7.28;4.80;;;;;;;15.90;39.94;95601.63;4947223;28;20430;-63
2023/06/11 04:06:57;;;;;;;6.38;4.82;;;;;;;15.92;39.71;95599.56;4947502;28;20241;-62
2023/06/11 04:09:23;;;;;;;6.78;5.00;;;;;;;16.04;39.88;95601.59;4949476;28;20611;-62
2023/06/11 04:11:48;;;;;;;5.68;4.80;;;;;;;16.07;39.88;95603.81;4947951;28;20047;-62
2023/06/11 04:14:14;;;;;;;6.05;4.75;;;;;;;16.15;40.30;95603.59;4949992;28;20525;-62
2023/06/11 04:16:39;;;;;;;5.85;4.50;;;;;;;16.24;39.97;95615.75;4945656;28;20040;-63
2023/06/11 04:19:04;;;;;;;6.57;4.88;;;;;;;16.31;40.25;95610.31;4948626;28;20028;-62
2023/06/11 04:21:30;;;;;;;7.53;5.10;;;;;;;16.38;40.43;95607.63;4949739;28;20051;-62
2023/06/11 04:23:55;;;;;;;7.45;5.00;;;;;;;16.54;40.54;95602.78;4951998;28;20564;-62
2023/06/11 04:26:23;;;;;;;5.60;4.70;;;;;;;16.62;40.32;95605.22;4951563;28;20035;-63
2023/06/11 04:28:49;;;;;;;6.07;4.50;;;;;;;16.74;40.11;95614.25;4947046;28;20038;-62
2023/06/11 04:31:14;;;;;;;6.80;4.65;;;;;;;16.86;40.22;95611.66;4945736;28;20043;-62
2023/06/11 04:33:40;;;;;;;6.55;4.60;;;;;;;16.97;39.68;95610.16;4949168;28;20035;-63
2023/06/11 04:36:09;;;;;;;7.60;4.53;;;;;;;17.12;39.94;95612.53;4948773;28;20035;-62
2023/06/11 04:38:37;;;;;;;6.40;4.97;;;;;;;17.25;39.64;95616.13;4935462;28;20046;-63
2023/06/11 04:41:05;;;;;;;9.88;5.28;;;;;;;17.18;40.26;95616.22;4954137;28;20059;-62
2023/06/11 04:43:33;;;;;;;6.97;4.88;;;;;;;17.38;39.39;95615.19;4953224;28;20305;-62
2023/06/11 04:45:59;;;;;;;;;;;;;;;17.45;39.64;95615.97;4951123;28;20621;-62
2023/06/11 04:48:25;;;;;;;8.55;4.80;;;;;;;17.57;39.50;95613.34;4950024;28;20369;-62
2023/06/11 04:50:51;;;;;;;7.78;4.93;;;;;;;17.53;39.13;95612.97;4944507;28;20098;-62
2023/06/11 04:53:21;;;;;;;6.43;5.10;;;;;;;17.70;38.95;95612.38;4946115;28;20064;-62
2023/06/11 04:55:49;;;;;;;7.35;4.68;;;;;;;17.79;38.99;95610.22;4950390;28;20031;-62
2023/06/11 04:58:15;;;;;;;8.38;4.57;;;;;;;17.92;38.65;95614.66;4945270;28;20114;-62
2023/06/11 05:00:40;;;;;;;6.13;4.85;;;;;;;17.97;38.16;95606.72;4948359;28;20491;-63
2023/06/11 05:03:06;;;;;;;7.32;4.95;;;;;;;17.98;38.46;95608.34;4951315;28;20137;-63
2023/06/11 05:05:32;;;;;;;6.07;4.70;;;;;;;18.09;38.40;95611.34;4959942;28;20521;-63
2023/06/11 05:07:57;;;;;;;6.97;4.50;;;;;;;18.36;38.04;95609.13;4953184;28;20101;-62
2023/06/11 05:10:23;;;;;;;8.70;4.85;;;;;;;18.37;37.71;95610.78;4950136;28;20043;-62
2023/06/11 05:12:48;;;;;;;6.07;4.90;;;;;;;18.33;37.61;95619.53;4948286;28;20047;-63
2023/06/11 05:15:13;;;;;;;5.47;4.63;;;;;;;18.57;37.24;95609.69;4947410;28;20031;-62
2023/06/11 05:17:39;;;;;;;6.25;4.80;;;;;;;18.73;37.07;95621.69;4948257;28;20043;-63
2023/06/11 05:20:05;;;;;;;6.53;4.60;;;;;;;18.91;36.39;95617.28;4948089;28;20573;-62
2023/06/11 05:22:31;;;;;;;6.55;4.78;;;;;;;18.85;35.86;95627.13;4949381;28;20153;-62
2023/06/11 05:24:56;;;;;;;6.65;4.65;;;;;;;18.93;34.85;95620.56;4954131;28;20039;-62
2023/06/11 05:27:23;;;;;;;5.43;4.70;;;;;;;18.84;37.01;95628.19;4950084;28;20039;-62
2023/06/11 05:29:48;;;;;;;7.10;4.70;;;;;;;19.17;36.08;95623.31;4946546;28;20038;-62
2023/06/11 05:32:14;;;;;;;6.70;4.68;;;;;;;19.27;35.79;95631.66;4949706;28;20055;-62
2023/06/11 05:34:40;;;;;;;8.25;4.60;;;;;;;19.26;35.64;95627.31;4950976;28;20101;-62
2023/06/11 05:37:06;;;;;;;5.50;4.50;;;;;;;19.32;35.34;95625.56;4960054;28;20031;-62
2023/06/11 05:39:31;;;;;;;8.73;4.60;;;;;;;19.03;34.75;95631.63;4959893;28;20065;-63
2023/06/11 05:41:57;;;;;;;6.78;4.40;;;;;;;19.44;34.90;95625.56;4953901;28;20027;-62
2023/06/11 05:44:22;;;;;;;6.68;4.65;;;;;;;18.93;34.88;95625.97;4927239;28;20050;-62
2023/06/11 05:46:48;;;;;;;6.30;4.40;;;;;;;19.38;34.37;95631.91;4952468;28;20035;-62
2023/06/11 05:49:13;;;;;;;7.00;4.55;;;;;;;19.17;34.12;95623.31;4944780;28;20068;-63
2023/06/11 05:51:39;;;;;;;6.63;4.30;;;;;;;19.46;34.16;95628.88;4953273;28;20113;-63
2023/06/11 05:54:04;;;;;;;6.53;4.40;;;;;;;19.74;34.47;95624.63;4953961;28;20055;-62
2023/06/11 05:56:30;;;;;;;4.88;4.32;;;;;;;19.39;34.71;95636.25;4944660;28;20035;-62
2023/06/11 05:58:55;;;;;;;5.55;4.45;;;;;;;19.77;34.45;95634.94;4944349;28;20030;-63
2023/06/11 06:01:21;;;;;;;6.38;4.22;;;;;;;19.82;33.50;95635.06;4948054;28;20090;-62
2023/06/11 06:03:47;;;;;;;5.75;4.32;;;;;;;19.97;33.99;95640.00;4947155;28;20380;-62
2023/06/11 06:06:12;;;;;;;6.10;4.50;;;;;;;19.79;34.04;95651.72;4946327;28;20466;-63
2023/06/11 06:08:37;;;;;;;6.80;4.30;;;;;;;20.20;33.80;95645.59;4945842;28;20398;-62
2023/06/11 06:11:03;;;;;;;8.00;4.28;;;;;;;19.68;33.24;95639.09;4946682;28;20031;-62
2023/06/11 06:13:28;;;;;;;8.63;4.50;;;;;;;19.83;33.78;95644.81;4930225;28;20038;-62
2023/06/11 06:15:54;;;;;;;8.98;4.55;;;;;;;19.68;33.92;95642.59;4932457;28;20035;-62
2023/06/11 06:18:20;;;;;;;6.65;4.70;;;;;;;20.16;33.59;95647.13;4949973;28;20039;-62
2023/06/11 06:20:46;;;;;;;5.20;4.65;;;;;;;20.16;33.61;95647.94;4950600;28;20548;-63
2023/06/11 06:23:11;;;;;;;6.18;4.40;;;;;;;20.29;33.52;95646.84;4951771;28;20425;-62
2023/06/11 06:25:37;;;;;;;7.35;4.82;;;;;;;20.30;33.39;95645.78;4949973;28;20036;-62
2023/06/11 06:28:04;;;;;;;6.70;4.55;;;;;;;20.56;32.25;95650.88;4951892;28;20043;-62
2023/06/11 06:30:30;;;;;;;5.10;4.28;;;;;;;20.33;33.06;95648.00;4951232;28;20517;-62
2023/06/11 06:32:56;;;;;;;5.68;4.57;;;;;;;20.49;33.06;95653.69;4950139;28;20329;-63
2023/06/11 06:35:21;;;;;;;5.55;4.40;;;;;;;20.80;32.08;95658.91;4952121;28;20505;-62
2023/06/11 06:37:46;;;;;;;5.65;4.20;;;;;;;20.74;32.89;95661.50;4951425;28;20397;-63
2023/06/11 06:40:12;;;;;;;6.88;4.30;;;;;;;20.84;31.67;95658.16;4957543;28;20043;-62
2023/06/11 06:42:38;;;;;;;5.45;4.10;;;;;;;21.18;31.83;95670.09;4951529;28;20031;-63
2023/06/11 06:45:04;;;;;;;6.35;4.22;;;;;;;21.29;31.59;95666.53;4951582;28;20561;-62
2023/06/11 06:47:29;;;;;;;7.90;4.20;;;;;;;20.71;32.55;95666.59;4955129;28;20141;-62
2023/06/11 06:49:55;;;;;;;6.65;4.13;;;;;;;21.00;32.62;95678.19;4956366;28;20042;-62
2023/06/11 06:52:20;;;;;;;7.93;4.28;;;;;;;20.91;31.61;95673.44;4947910;28;20253;-62
2023/06/11 06:54:47;;;;;;;5.97;4.13;;;;;;;21.02;31.62;95674.41;4955723;28;20042;-62
2023/06/11 06:57:13;;;;;;;;;;;;;;;21.51;31.64;95676.59;4953809;28;20200;-62
2023/06/11 06:59:38;;;;;;;5.80;4.13;;;;;;;21.52;31.78;95680.97;4951321;28;20298;-62
2023/06/11 07:02:04;;;;;;;5.78;4.13;;;;;;;21.63;31.06;95671.09;4950521;28;20424;-62
2023/06/11 07:04:29;;;;;;;6.20;4.07;;;;;;;21.66;31.30;95670.63;4947546;28;20126;-62
2023/06/11 07:06:55;;;;;;;7.68;4.38;;;;;;;21.71;31.06;95673.38;4957367;28;20500;-62
2023/06/11 07:09:20;;;;;;;6.38;4.07;;;;;;;22.17;30.58;95679.72;4960741;28;20041;-62
2023/06/11 07:11:47;;;;;;;4.90;4.00;;;;;;;21.94;30.08;95677.00;4956754;28;20043;-62
2023/06/11 07:14:13;;;;;;;;;;;;;;;22.12;30.67;95678.56;4954090;28;20387;-62
2023/06/11 07:16:38;;;;;;;5.83;4.13;;;;;;;22.22;31.18;95686.03;4946738;28;19918;-62
2023/06/11 07:19:03;;;;;;;4.53;3.85;;;;;;;22.17;30.77;95685.13;4950652;28;20043;-63
2023/06/11 07:21:29;;;;;;;5.07;3.97;;;;;;;22.68;30.62;95694.97;4947869;28;20019;-62
2023/06/11 07:23:55;;;;;;;5.35;3.90;;;;;;;22.63;30.21;95690.31;4952377;28;20035;-62
2023/06/11 07:26:20;;;;;;;5.93;4.00;;;;;;;22.83;29.71;95692.44;4951395;28;20038;-62
2023/06/11 07:28:45;;;;;;;4.85;4.03;;;;;;;22.85;30.36;95695.72;4954334;28;20038;-63
2023/06/11 07:31:12;;;;;;;7.85;4.15;;;;;;;22.89;29.45;95690.59;4951015;28;20031;-62
2023/06/11 07:33:38;;;;;;;8.40;4.18;;;;;;;22.95;29.31;95694.19;4949914;28;20115;-62
2023/06/11 07:36:04;;;;;;;7.43;4.20;;;;;;;22.90;29.26;95694.94;4950643;28;20389;-62
2023/06/11 07:38:30;;;;;;;6.40;5.00;;;;;;;23.34;29.10;95701.34;4947803;28;20131;-62
2023/06/11 07:40:56;;;;;;;7.30;4.60;;;;;;;23.51;29.04;95706.63;4949101;28;20051;-62
2023/06/11 07:43:21;;;;;;;9.90;4.70;;;;;;;23.64;28.62;95699.94;4947322;28;20086;-62
2023/06/11 07:45:47;;;;;;;5.28;4.45;;;;;;;23.61;27.98;95703.19;4946150;28;20390;-62
2023/06/11 07:48:13;;;;;;;6.53;4.40;;;;;;;23.76;28.22;95697.09;4950781;28;20050;-62
2023/06/11 07:50:38;;;;;;;7.07;4.47;;;;;;;23.76;27.37;95697.09;4946778;28;20493;-62
2023/06/11 07:53:04;;;;;;;7.20;4.28;;;;;;;23.93;27.72;95697.72;4949313;28;20035;-62
2023/06/11 07:55:29;;;;;;;6.32;4.80;;;;;;;23.99;27.63;95690.41;4948453;28;20047;-62
2023/06/11 07:57:55;;;;;;;9.27;4.78;;;;;;;24.15;27.01;95696.75;4931874;28;20394;-62
2023/06/11 08:00:21;;;;;;;6.00;4.60;;;;;;;24.17;27.42;95702.75;4948990;28;20158;-62
2023/06/11 08:02:46;;;;;;;8.57;4.35;;;;;;;24.51;26.83;95687.16;4946874;28;20035;-62
2023/06/11 08:05:17;;;;;;;5.63;4.10;;;;;;;24.71;26.85;95692.66;4949403;28;20059;-62
2023/06/11 08:07:43;;;;;;;5.75;3.83;;;;;;;24.95;26.45;95694.91;4949822;28;20031;-62
2023/06/11 08:10:08;;;;;;;4.20;3.80;;;;;;;25.12;26.52;95695.75;4951080;28;20390;-62
2023/06/11 08:12:34;;;;;;;6.47;4.00;;;;;;;24.90;26.00;95699.53;4948238;28;20353;-62
2023/06/11 08:14:59;;;;;;;10.23;5.80;;;;;;;24.84;26.05;95698.66;4946585;28;20415;-62
2023/06/11 08:17:25;;;;;;;7.23;4.00;;;;;;;25.11;25.96;95697.66;4947700;28;20024;-62
2023/06/11 08:19:50;;;;;;;6.73;4.73;;;;;;;25.22;25.75;95698.50;4946582;28;20086;-62
2023/06/11 08:22:16;;;;;;;8.80;5.00;;;;;;;25.29;25.14;95690.84;4949123;28;20489;-62
2023/06/11 08:24:41;;;;;;;4.87;3.90;;;;;;;25.43;25.04;95698.50;4953287;28;20054;-62
2023/06/11 08:27:08;;;;;;;7.20;4.27;;;;;;;25.04;25.85;95707.97;4947222;28;20039;-62
2023/06/11 08:29:33;;;;;;;7.07;3.95;;;;;;;25.53;24.67;95692.25;4945658;28;20050;-62
2023/06/11 08:31:59;;;;;;;7.63;5.00;;;;;;;25.27;25.40;95700.38;4947259;28;20035;-62
2023/06/11 08:34:24;;;;;;;10.40;4.80;;;;;;;25.63;24.48;95692.25;4948891;28;20494;-62
2023/06/11 08:36:50;;;;;;;6.87;4.23;;;;;;;25.64;24.18;95696.59;4945719;28;20090;-62
2023/06/11 08:39:16;;;;;;;5.30;4.30;;;;;;;25.71;24.49;95699.06;4946895;28;20031;-62
2023/06/11 08:41:41;;;;;;;7.90;4.03;;;;;;;25.70;24.25;95692.78;4948837;28;20034;-62
2023/06/11 08:44:06;;;;;;;7.40;3.97;;;;;;;25.95;23.57;95693.84;4951426;28;20313;-62
2023/06/11 08:46:34;;;;;;;9.10;4.80;;;;;;;26.24;24.08;95689.69;4950159;28;20034;-62
2023/06/11 08:49:04;;;;;;;7.57;4.22;;;;;;;26.21;23.90;95696.50;4954555;28;20061;-62
2023/06/11 08:51:37;;;;;;;7.28;4.32;;;;;;;26.34;23.61;95692.38;4948839;28;20723;-62
2023/06/11 08:54:06;;;;;;;6.53;4.78;;;;;;;26.41;22.83;95694.78;4932288;28;20565;-62
2023/06/11 08:56:32;;;;;;;7.00;4.05;;;;;;;26.14;23.67;95696.00;4949389;28;20372;-62
2023/06/11 08:58:57;;;;;;;6.33;4.10;;;;;;;26.29;22.98;95697.03;4933428;28;20337;-62
2023/06/11 09:01:23;;;;;;;6.27;3.90;;;;;;;26.64;22.49;95691.75;4950902;28;20030;-62
2023/06/11 09:03:48;;;;;;;4.93;3.97;;;;;;;26.42;22.60;95698.34;4950172;28;20662;-62
2023/06/11 09:06:14;;;;;;;5.07;3.80;;;;;;;26.06;22.31;95697.38;4951864;28;20034;-62
2023/06/11 09:08:39;;;;;;;9.87;4.60;;;;;;;26.58;22.42;95701.88;4948544;28;20066;-62
2023/06/11 09:11:05;;;;;;;5.77;4.07;;;;;;;26.73;20.85;95698.22;4935355;28;20046;-63
2023/06/11 09:13:31;;;;;;;6.63;4.97;;;;;;;26.77;21.47;95690.28;4949340;28;20316;-63
2023/06/11 09:15:56;;;;;;;8.17;4.90;;;;;;;26.75;21.25;95698.78;4950172;28;20066;-62
2023/06/11 09:18:22;;;;;;;6.80;4.20;;;;;;;26.80;21.08;95700.66;4951690;28;20023;-62
2023/06/11 09:20:54;;;;;;;4.90;4.30;;;;;;;26.87;21.47;95707.44;4948514;28;20024;-62
2023/06/11 09:23:38;;;;;;;6.82;4.47;;;;;;;26.99;21.16;95693.44;4953128;28;20038;-62
2023/06/11 09:26:04;;;;;;;8.02;5.05;;;;;;;27.15;21.20;95696.09;4952520;28;20396;-63
2023/06/11 09:28:33;;;;;;;9.23;4.70;;;;;;;27.07;21.19;95688.47;4950053;28;20034;-62
2023/06/11 09:31:00;;;;;;;8.90;4.32;;;;;;;27.00;21.60;95697.81;4949947;28;20365;-62
2023/06/11 09:33:30;;;;;;;6.22;4.18;;;;;;;27.13;19.88;95695.56;4946654;28;20496;-62
2023/06/11 09:35:56;;;;;;;6.35;3.70;;;;;;;27.31;20.07;95704.16;4948070;28;20037;-62
2023/06/11 09:38:21;;;;;;;6.97;3.70;;;;;;;27.61;19.07;95702.28;4952064;28;20030;-62
2023/06/11 09:40:50;;;;;;;7.87;4.00;;;;;;;27.31;19.79;95698.69;4954140;28;20409;-62
2023/06/11 09:43:19;;;;;;;5.53;3.75;;;;;;;27.57;19.33;95704.78;4948771;28;20051;-62
2023/06/11 09:45:45;;;;;;;7.07;3.72;;;;;;;27.54;19.68;95712.75;4948729;28;20035;-62
2023/06/11 09:48:11;;;;;;;6.87;3.77;;;;;;;27.65;19.37;95700.63;4949303;28;20042;-63
2023/06/11 09:50:36;;;;;;;;;;;;;;;27.73;18.68;95705.47;4949908;28;20023;-63
2023/06/11 09:53:05;;;;;;;4.33;3.53;;;;;;;27.43;19.93;95706.53;4929274;28;20329;-62
2023/06/11 09:55:34;;;;;;;7.38;3.80;;;;;;;27.56;18.86;95713.28;4915252;28;20039;-62
2023/06/11 09:58:00;;;;;;;5.20;3.30;;;;;;;27.84;18.88;95710.88;4928752;28;20043;-63
2023/06/11 10:00:25;;;;;;;3.83;3.47;;;;;;;28.17;19.32;95719.28;4925805;28;20133;-62
2023/06/11 10:02:51;;;;;;;8.67;4.07;;;;;;;28.33;19.05;95711.75;4950011;28;20527;-62
2023/06/11 10:05:16;;;;;;;6.60;3.63;;;;;;;28.67;18.68;95715.47;4946207;28;20055;-62
2023/06/11 10:07:45;;;;;;;5.93;3.67;;;;;;;28.38;18.43;95713.63;4950793;28;20049;-62
2023/06/11 10:10:11;;;;;;;5.90;3.55;;;;;;;28.42;18.36;95720.94;4915997;28;20026;-62
2023/06/11 10:12:37;;;;;;;10.68;3.60;;;;;;;28.17;18.48;95723.97;4945992;28;20414;-62
2023/06/11 10:15:05;;;;;;;4.77;3.70;;;;;;;28.34;18.54;95718.03;4930442;28;20032;-62
2023/06/11 10:17:31;;;;;;;7.28;3.80;;;;;;;28.65;18.56;95715.72;4944415;28;20050;-62
2023/06/11 10:19:56;;;;;;;5.10;3.90;;;;;;;28.87;18.21;95713.56;4925669;28;20047;-62
2023/06/11 10:22:32;;;;;;;9.63;3.80;;;;;;;28.63;18.10;95719.88;4945705;28;20336;-60
2023/06/11 10:25:01;;;;;;;6.43;4.00;;;;;;;28.39;17.49;95715.22;4947326;28;20431;-61
2023/06/11 10:27:40;;;;;;;5.93;3.92;;;;;;;28.52;18.02;95710.97;4948952;28;20043;-62
2023/06/11 10:30:06;;;;;;;9.65;3.92;;;;;;;28.59;18.21;95713.34;4944017;28;20101;-62
2023/06/11 10:32:32;;;;;;;6.97;3.90;;;;;;;28.50;18.50;95711.25;4946959;28;20506;-61
2023/06/11 10:34:58;;;;;;;6.37;4.00;;;;;;;28.72;18.48;95700.91;4946572;28;20078;-62
2023/06/11 10:37:36;;;;;;;4.95;3.70;;;;;;;28.27;18.76;95707.41;4947054;28;20046;-62
2023/06/11 10:40:03;;;;;;;7.65;3.95;;;;;;;28.53;18.87;95705.22;4941950;28;20151;-62
2023/06/11 10:42:35;;;;;;;7.25;3.90;;;;;;;28.03;19.10;95702.72;4951292;28;20497;-62
2023/06/11 10:45:00;;;;;;;5.50;3.78;;;;;;;28.69;19.83;95713.25;4946395;28;20075;-62
2023/06/11 10:47:27;;;;;;;7.30;3.97;;;;;;;29.22;18.81;95707.91;4959229;28;20038;-62
2023/06/11 10:50:03;;;;;;;6.03;3.70;;;;;;;29.34;18.53;95700.03;4954111;28;20113;-62
2023/06/11 10:52:28;;;;;;;4.95;3.80;;;;;;;29.37;18.99;95709.56;4927328;28;20245;-62
2023/06/11 10:54:53;;;;;;;5.43;3.90;;;;;;;29.68;18.24;95709.88;4945194;28;20048;-62
2023/06/11 10:57:19;;;;;;;5.60;3.60;;;;;;;29.96;18.33;95711.88;4930244;28;20071;-62
2023/06/11 10:59:45;;;;;;;4.63;3.60;;;;;;;30.24;17.81;95709.19;4913417;28;20517;-62
2023/06/11 11:02:11;;;;;;;;;;;;;;;30.08;18.18;95705.91;4933378;28;20733;-62
2023/06/11 11:04:53;;;;;;;8.27;3.45;;;;;;;30.13;17.82;95707.72;4936040;28;19925;-62
2023/06/11 11:07:18;;;;;;;5.55;3.58;;;;;;;30.38;17.25;95711.13;4936485;28;20602;-62
2023/06/11 11:09:44;;;;;;;3.97;3.40;;;;;;;30.86;17.27;95706.31;4948807;28;20051;-62
2023/06/11 11:12:11;;;;;;;8.10;3.58;;;;;;;30.78;17.07;95700.44;4950075;28;20361;-62
2023/06/11 11:14:37;;;;;;;6.95;3.70;;;;;;;31.08;16.89;95706.38;4947784;28;20536;-62
2023/06/11 11:17:02;;;;;;;6.50;3.70;;;;;;;30.96;16.00;95708.84;4929421;28;20035;-62
2023/06/11 11:19:30;;;;;;;5.53;3.65;;;;;;;31.00;16.11;95696.13;4950086;28;20043;-62
2023/06/11 11:21:55;;;;;;;8.13;3.65;;;;;;;31.47;16.06;95695.84;4949105;28;20118;-62
2023/06/11 11:24:21;;;;;;;4.03;3.40;;;;;;;31.88;15.85;95697.88;4946873;28;20039;-62
2023/06/11 11:26:46;;;;;;;6.10;4.05;;;;;;;31.41;16.16;95701.78;4948478;28;20039;-62
2023/06/11 11:29:12;;;;;;;8.40;3.43;;;;;;;30.59;15.30;95703.28;4951083;28;20028;-60
2023/06/11 11:31:38;;;;;;;;;;;;;;;30.64;16.54;95694.09;4949319;28;20058;-60